createdAt,value
2022-10-04T00:01:12.276Z,7.35
2022-10-04T00:03:46.178Z,8.35
2022-10-04T00:06:17.275Z,11.73
2022-10-04T00:08:46.352Z,10.15
2022-10-04T00:11:23.413Z,12.40
2022-10-04T00:13:54.646Z,10.82
2022-10-04T00:19:01.679Z,11.93
2022-10-04T00:21:54.660Z,13.65
2022-10-04T00:24:29.592Z,7.43
2022-10-04T00:27:20.424Z,10.93
2022-10-04T00:30:16.153Z,14.93
2022-10-04T00:32:42.743Z,9.88
2022-10-04T00:35:27.226Z,13.63
2022-10-04T00:37:57.119Z,9.30
2022-10-04T00:40:26.995Z,15.70
2022-10-04T00:43:04.687Z,14.23
2022-10-04T00:46:13.166Z,15.52
2022-10-04T00:48:50.060Z,14.68
2022-10-04T00:51:46.515Z,11.02
2022-10-04T00:54:26.800Z,11.65
2022-10-04T00:56:57.823Z,12.48
2022-10-04T00:59:44.290Z,12.60
2022-10-04T01:02:21.564Z,15.23
2022-10-04T01:04:53.623Z,12.93
2022-10-04T01:07:28.652Z,13.70
2022-10-04T01:10:04.201Z,13.75
2022-10-04T01:13:13.818Z,11.40
2022-10-04T01:16:07.447Z,12.88
2022-10-04T01:18:35.338Z,16.30
2022-10-04T01:21:19.623Z,12.13
2022-10-04T01:23:53.511Z,13.77
2022-10-04T01:26:29.489Z,13.52
2022-10-04T01:29:01.602Z,15.30
2022-10-04T01:31:34.009Z,11.27
2022-10-04T01:34:01.701Z,15.30
2022-10-04T01:36:28.940Z,11.77
2022-10-04T01:38:55.977Z,15.02
2022-10-04T01:41:31.348Z,11.45
2022-10-04T01:44:01.321Z,14.20
2022-10-04T01:46:33.419Z,13.18
2022-10-04T01:49:05.470Z,14.02
2022-10-04T01:51:36.763Z,13.15
2022-10-04T01:54:11.348Z,15.20
2022-10-04T01:56:53.642Z,10.32
2022-10-04T01:59:26.777Z,12.88
2022-10-04T02:02:04.077Z,17.75
2022-10-04T02:04:38.659Z,11.90
2022-10-04T02:07:13.502Z,12.85
2022-10-04T02:09:44.341Z,17.23
2022-10-04T02:12:19.791Z,14.30
2022-10-04T02:14:52.518Z,13.10
2022-10-04T02:17:28.144Z,11.82
2022-10-04T02:19:55.098Z,13.25
2022-10-04T02:22:24.823Z,16.58
2022-10-04T02:24:54.726Z,18.00
2022-10-04T02:27:26.892Z,14.38
2022-10-04T02:29:59.679Z,13.23
2022-10-04T02:32:45.121Z,14.77
2022-10-04T02:35:12.844Z,14.45
2022-10-04T02:37:40.049Z,16.13
2022-10-04T02:40:13.995Z,12.77
2022-10-04T02:42:54.372Z,15.35
2022-10-04T02:45:27.431Z,13.65
2022-10-04T02:48:10.575Z,16.73
2022-10-04T02:50:48.367Z,17.83
2022-10-04T02:53:30.547Z,16.52
2022-10-04T02:55:57.820Z,13.57
2022-10-04T02:58:25.996Z,16.65
2022-10-04T03:00:57.857Z,16.08
2022-10-04T03:03:32.807Z,14.38
2022-10-04T03:06:08.748Z,18.88
2022-10-04T03:09:01.103Z,12.65
2022-10-04T03:11:33.532Z,20.02
2022-10-04T03:14:03.020Z,13.35
2022-10-04T03:16:39.198Z,13.95
2022-10-04T03:19:07.571Z,15.10
2022-10-04T03:21:35.472Z,15.88
2022-10-04T03:24:03.246Z,14.52
2022-10-04T03:26:34.050Z,15.48
2022-10-04T03:29:00.981Z,26.70
2022-10-04T03:31:28.625Z,17.73
2022-10-04T03:33:57.722Z,14.10
2022-10-04T03:36:26.581Z,13.38
2022-10-04T03:38:58.282Z,17.33
2022-10-04T03:41:25.875Z,19.50
2022-10-04T03:43:54.702Z,14.48
2022-10-04T03:46:23.119Z,15.18
2022-10-04T03:48:52.446Z,15.90
2022-10-04T03:51:21.770Z,18.27
2022-10-04T03:53:54.579Z,16.25
2022-10-04T03:56:31.160Z,20.38
2022-10-04T03:58:58.140Z,22.95
2022-10-04T04:01:40.681Z,18.83
2022-10-04T04:04:18.939Z,20.92
2022-10-04T04:06:52.414Z,20.20
2022-10-04T04:09:27.195Z,16.90
2022-10-04T04:11:57.903Z,19.42
2022-10-04T04:14:27.350Z,20.80
2022-10-04T04:17:14.983Z,16.30
2022-10-04T04:19:42.259Z,15.40
2022-10-04T04:22:15.387Z,17.23
2022-10-04T04:24:43.326Z,23.70
2022-10-04T04:27:11.016Z,18.20
2022-10-04T04:29:51.527Z,17.85
2022-10-04T04:32:25.006Z,14.40
2022-10-04T04:34:53.763Z,15.57
2022-10-04T04:37:20.449Z,18.95
2022-10-04T04:39:52.119Z,19.27
2022-10-04T04:42:31.684Z,19.85
2022-10-04T04:45:01.758Z,17.00
2022-10-04T04:47:33.098Z,18.58
2022-10-04T04:50:08.759Z,19.75
2022-10-04T04:52:36.843Z,27.02
2022-10-04T04:55:05.650Z,16.70
2022-10-04T04:57:33.313Z,22.60
2022-10-04T05:00:01.754Z,18.10
2022-10-04T05:02:29.170Z,15.30
2022-10-04T05:05:22.694Z,18.98
2022-10-04T05:07:50.145Z,15.20
2022-10-04T05:10:30.433Z,16.90
2022-10-04T05:12:59.761Z,13.73
2022-10-04T05:15:28.447Z,17.33
2022-10-04T05:17:54.919Z,17.77
2022-10-04T05:20:21.438Z,15.05
2022-10-04T05:22:49.324Z,15.30
2022-10-04T05:25:27.799Z,14.88
2022-10-04T05:27:56.026Z,20.40
2022-10-04T05:30:37.555Z,15.43
2022-10-04T05:33:14.492Z,17.65
2022-10-04T05:35:56.156Z,15.07
2022-10-04T05:38:39.312Z,18.45
2022-10-04T05:41:19.918Z,15.10
2022-10-04T05:43:50.167Z,13.02
2022-10-04T05:46:28.106Z,13.65
2022-10-04T05:49:19.397Z,16.65
2022-10-04T05:52:02.313Z,15.63
2022-10-04T05:54:32.670Z,17.85
2022-10-04T05:57:02.030Z,14.60
2022-10-04T05:59:47.858Z,19.63
2022-10-04T06:02:31.158Z,13.55
2022-10-04T06:05:13.015Z,13.48
2022-10-04T06:07:52.118Z,19.25
2022-10-04T06:10:36.989Z,15.15
2022-10-04T06:13:34.542Z,16.65
2022-10-04T06:16:04.350Z,15.48
2022-10-04T06:18:41.800Z,13.00
2022-10-04T06:21:08.067Z,13.93
2022-10-04T06:23:42.472Z,14.48
2022-10-04T06:26:18.870Z,16.05
2022-10-04T06:29:03.110Z,14.35
2022-10-04T06:31:57.419Z,12.82
2022-10-04T06:34:44.975Z,10.30
2022-10-04T06:37:49.041Z,15.48
2022-10-04T06:40:44.515Z,12.02
2022-10-04T06:43:23.087Z,11.70
2022-10-04T06:46:05.553Z,12.77
2022-10-04T06:49:00.303Z,12.38
2022-10-04T06:51:45.560Z,13.10
2022-10-04T06:54:43.381Z,11.98
2022-10-04T06:57:19.125Z,13.18
2022-10-04T07:00:03.069Z,13.23
2022-10-04T07:02:38.887Z,11.02
2022-10-04T07:05:14.650Z,10.95
2022-10-04T07:07:47.356Z,13.00
2022-10-04T07:10:25.838Z,9.23
2022-10-04T07:13:11.437Z,11.10
2022-10-04T07:16:06.762Z,10.77
2022-10-04T07:18:54.412Z,10.10
2022-10-04T07:21:26.090Z,10.07
2022-10-04T07:24:01.664Z,16.67
2022-10-04T07:26:36.972Z,12.30
2022-10-04T07:29:22.719Z,10.63
2022-10-04T07:31:54.123Z,12.25
2022-10-04T07:34:30.617Z,10.00
2022-10-04T07:37:00.849Z,12.27
2022-10-04T07:39:33.417Z,12.00
2022-10-04T07:42:24.587Z,10.20
2022-10-04T07:45:30.257Z,8.60
2022-10-04T07:48:19.645Z,10.43
2022-10-04T07:50:59.680Z,12.93
2022-10-04T07:53:37.612Z,13.23
2022-10-04T07:56:13.969Z,10.20
2022-10-04T07:58:52.368Z,12.45
2022-10-04T08:01:32.943Z,12.68
2022-10-04T08:04:05.971Z,10.07
2022-10-04T08:07:15.395Z,12.82
2022-10-04T08:10:17.056Z,10.15
2022-10-04T08:13:36.011Z,16.60
2022-10-04T08:16:11.981Z,9.93
2022-10-04T08:18:59.736Z,10.32
2022-10-04T08:21:48.395Z,9.32
2022-10-04T08:24:29.900Z,12.95
2022-10-04T08:27:26.419Z,20.83
2022-10-04T08:30:04.461Z,20.98
2022-10-04T08:33:01.908Z,10.55
2022-10-04T08:35:34.181Z,25.30
2022-10-04T08:38:42.282Z,14.18
2022-10-04T08:41:56.678Z,9.88
2022-10-04T08:44:51.594Z,12.55
2022-10-04T08:47:40.132Z,15.13
2022-10-04T08:50:34.480Z,15.55
2022-10-04T08:53:35.560Z,11.45
2022-10-04T08:56:39.875Z,11.85
2022-10-04T08:59:32.364Z,14.65
2022-10-04T09:02:23.653Z,10.10
2022-10-04T09:05:06.083Z,16.98
2022-10-04T09:07:55.428Z,10.77
2022-10-04T09:10:48.493Z,10.13
2022-10-04T09:13:40.139Z,16.13
2022-10-04T09:16:40.898Z,8.63
2022-10-04T09:19:19.682Z,10.55
2022-10-04T09:21:46.013Z,15.00
2022-10-04T09:24:49.805Z,10.82
2022-10-04T09:27:53.647Z,14.60
2022-10-04T09:30:24.957Z,9.80
2022-10-04T09:32:59.278Z,9.13
2022-10-04T09:35:31.917Z,12.48
2022-10-04T09:38:10.693Z,15.48
2022-10-04T09:41:02.025Z,14.00
2022-10-04T09:43:28.296Z,9.50
2022-10-04T09:46:32.352Z,11.73
2022-10-04T09:49:10.598Z,13.05
2022-10-04T09:52:01.699Z,13.30
2022-10-04T09:54:42.326Z,9.35
2022-10-04T09:57:28.963Z,13.98
2022-10-04T10:00:09.453Z,11.13
2022-10-04T10:03:11.081Z,12.83
2022-10-04T10:06:12.387Z,13.82
2022-10-04T10:08:57.474Z,15.45
2022-10-04T10:11:53.778Z,11.25
2022-10-04T10:14:28.970Z,11.55
2022-10-04T10:17:07.816Z,9.68
2022-10-04T10:19:46.570Z,8.68
2022-10-04T10:22:51.025Z,8.00
2022-10-04T10:25:56.043Z,8.20
2022-10-04T10:28:40.972Z,6.53
2022-10-04T10:31:29.370Z,11.23
2022-10-04T10:34:26.885Z,8.82
2022-10-04T10:37:33.570Z,11.35
2022-10-04T10:40:37.286Z,12.02
2022-10-04T10:43:23.929Z,11.35
2022-10-04T10:46:04.686Z,13.45
2022-10-04T10:48:56.094Z,14.27
2022-10-04T10:54:46.896Z,11.57
2022-10-04T10:57:37.495Z,9.32
2022-10-04T11:00:31.294Z,9.53
2022-10-04T11:03:23.742Z,10.63
2022-10-04T11:06:14.473Z,11.77
2022-10-04T11:08:58.753Z,10.57
2022-10-04T11:11:41.778Z,8.75
2022-10-04T11:14:33.099Z,9.07
2022-10-04T11:19:39.574Z,8.80
2022-10-04T11:22:18.990Z,9.48
2022-10-04T11:25:09.645Z,11.27
2022-10-04T11:28:08.879Z,10.15
2022-10-04T11:31:12.847Z,10.18
2022-10-04T11:33:55.668Z,11.00
2022-10-04T11:36:46.619Z,7.93
2022-10-04T11:39:48.783Z,7.97
2022-10-04T11:42:43.558Z,7.63
2022-10-04T11:45:55.739Z,15.57
2022-10-04T11:48:57.176Z,11.80
2022-10-04T11:52:02.407Z,8.68
2022-10-04T11:54:40.289Z,7.88
2022-10-04T11:57:15.841Z,11.50
2022-10-04T12:00:04.919Z,10.18
2022-10-04T12:03:09.384Z,9.30
2022-10-04T12:05:51.074Z,9.57
2022-10-04T12:09:05.690Z,7.78
2022-10-04T12:11:56.502Z,8.13
2022-10-04T12:14:35.675Z,6.85
2022-10-04T12:17:11.152Z,7.65
2022-10-04T12:20:15.254Z,8.13
2022-10-04T12:23:07.503Z,10.52
2022-10-04T12:25:53.636Z,10.30
2022-10-04T12:29:03.362Z,6.65
2022-10-04T12:31:41.507Z,6.13
2022-10-04T12:34:24.580Z,8.98
2022-10-04T12:40:25.245Z,11.82
2022-10-04T12:43:04.725Z,8.27
2022-10-04T12:45:53.098Z,7.85
2022-10-04T12:48:48.154Z,5.80
2022-10-04T12:51:37.797Z,6.25
2022-10-04T12:54:20.765Z,5.60
2022-10-04T12:57:06.381Z,5.78
2022-10-04T12:59:52.178Z,7.55
2022-10-04T13:02:52.536Z,6.60
2022-10-04T13:05:27.527Z,9.73
2022-10-04T13:08:24.816Z,5.80
2022-10-04T13:11:22.499Z,6.35
2022-10-04T13:14:00.832Z,6.20
2022-10-04T13:19:41.239Z,9.27
2022-10-04T13:22:54.833Z,8.38
2022-10-04T13:25:28.888Z,6.68
2022-10-04T13:28:20.537Z,4.70
2022-10-04T13:30:56.119Z,6.78
2022-10-04T13:33:50.734Z,6.25
2022-10-04T13:36:29.452Z,9.40
2022-10-04T13:39:02.509Z,7.13
2022-10-04T13:41:48.061Z,5.43
2022-10-04T13:44:47.636Z,4.97
2022-10-04T13:47:46.110Z,6.18
2022-10-04T13:50:17.317Z,4.53
2022-10-04T13:53:31.490Z,5.38
2022-10-04T13:56:20.857Z,3.17
2022-10-04T13:59:04.194Z,5.17
2022-10-04T14:01:45.745Z,4.38
2022-10-04T14:04:46.006Z,7.13
2022-10-04T14:07:31.618Z,2.58
2022-10-04T14:10:19.959Z,6.28
2022-10-04T14:12:49.298Z,5.53
2022-10-04T14:15:41.084Z,5.38
2022-10-04T14:18:45.250Z,5.32
2022-10-04T14:21:48.983Z,6.22
2022-10-04T14:24:15.435Z,3.20
2022-10-04T14:27:10.040Z,4.65
2022-10-04T14:29:58.200Z,4.63
2022-10-04T14:32:28.531Z,3.70
2022-10-04T14:37:57.284Z,6.40
2022-10-04T14:40:35.753Z,3.72
2022-10-04T14:43:30.960Z,4.90
2022-10-04T14:46:18.762Z,4.53
2022-10-04T14:48:56.866Z,9.95
2022-10-04T14:51:50.037Z,3.05
2022-10-04T14:54:34.895Z,6.45
2022-10-04T14:57:13.122Z,5.93
2022-10-04T15:00:10.458Z,12.02
2022-10-04T15:03:15.080Z,4.68
2022-10-04T15:05:54.675Z,6.32
2022-10-04T15:08:20.934Z,4.50
2022-10-04T15:10:53.025Z,6.53
2022-10-04T15:13:47.386Z,4.80
2022-10-04T15:16:36.660Z,4.70
2022-10-04T15:19:11.355Z,4.45
2022-10-04T15:21:53.699Z,3.72
2022-10-04T15:24:30.054Z,5.28
2022-10-04T15:27:11.505Z,6.65
2022-10-04T15:29:52.560Z,5.32
2022-10-04T15:32:18.813Z,6.00
2022-10-04T15:34:54.096Z,6.78
2022-10-04T15:37:32.284Z,4.00
2022-10-04T15:40:21.041Z,7.15
2022-10-04T15:43:19.161Z,5.28
2022-10-04T15:46:03.510Z,5.07
2022-10-04T15:48:52.162Z,6.55
2022-10-04T15:51:26.764Z,2.60
2022-10-04T15:54:18.307Z,2.72
2022-10-04T15:57:27.830Z,3.00
2022-10-04T16:00:15.149Z,4.80
2022-10-04T16:03:19.149Z,5.95
2022-10-04T16:06:11.565Z,4.28
2022-10-04T16:08:49.894Z,5.75
2022-10-04T16:11:51.804Z,7.20
2022-10-04T16:14:48.514Z,5.25
2022-10-04T16:17:46.454Z,5.57
2022-10-04T16:20:24.812Z,3.75
2022-10-04T16:23:36.562Z,7.28
2022-10-04T16:26:19.354Z,6.50
2022-10-04T16:29:29.249Z,9.48
2022-10-04T16:32:09.338Z,4.07
2022-10-04T16:34:57.588Z,8.48
2022-10-04T16:37:23.973Z,3.85
2022-10-04T16:40:19.210Z,6.25
2022-10-04T16:42:53.457Z,6.07
2022-10-04T16:45:42.999Z,4.90
2022-10-04T16:48:27.676Z,6.85
2022-10-04T16:51:06.083Z,4.53
2022-10-04T16:54:10.918Z,5.53
2022-10-04T16:57:00.459Z,8.10
2022-10-04T16:59:39.028Z,7.90
2022-10-04T17:02:14.428Z,9.68
2022-10-04T17:04:50.177Z,7.85
2022-10-04T17:07:27.309Z,9.98
2022-10-04T17:10:30.817Z,5.57
2022-10-04T17:13:12.641Z,11.07
2022-10-04T17:15:48.607Z,6.38
2022-10-04T17:18:30.039Z,6.95
2022-10-04T17:20:59.461Z,6.85
2022-10-04T17:23:28.944Z,6.82
2022-10-04T17:26:13.564Z,6.32
2022-10-04T17:28:56.511Z,8.27
2022-10-04T17:31:35.322Z,7.35
2022-10-04T17:34:39.442Z,7.47
2022-10-04T17:37:26.590Z,6.65
2022-10-04T17:40:08.917Z,7.03
2022-10-04T17:42:52.297Z,10.13
2022-10-04T17:45:40.174Z,6.55
2022-10-04T17:48:42.671Z,9.05
2022-10-04T17:51:33.773Z,7.65
2022-10-04T17:54:28.789Z,7.70
2022-10-04T17:57:04.528Z,6.40
2022-10-04T18:00:10.850Z,5.85
2022-10-04T18:02:37.435Z,6.88
2022-10-04T18:05:28.269Z,5.47
2022-10-04T18:08:08.114Z,7.50
2022-10-04T18:10:59.610Z,6.93
2022-10-04T18:13:55.574Z,8.00
2022-10-04T18:16:47.449Z,6.90
2022-10-04T18:19:39.949Z,5.93
2022-10-04T18:22:20.016Z,6.15
2022-10-04T18:24:49.113Z,8.82
2022-10-04T18:27:18.627Z,8.45
2022-10-04T18:30:03.714Z,7.53
2022-10-04T18:35:26.986Z,6.25
2022-10-04T18:38:15.851Z,7.65
2022-10-04T18:40:52.345Z,8.77
2022-10-04T18:43:40.216Z,9.15
2022-10-04T18:46:12.796Z,10.52
2022-10-04T18:48:42.952Z,7.30
2022-10-04T18:51:23.119Z,9.00
2022-10-04T18:53:59.935Z,8.48
2022-10-04T18:56:31.785Z,7.53
2022-10-04T18:59:25.040Z,9.20
2022-10-04T19:02:00.193Z,8.15
2022-10-04T19:04:45.759Z,7.78
2022-10-04T19:07:16.628Z,8.27
2022-10-04T19:10:03.375Z,11.38
2022-10-04T19:12:40.715Z,9.90
2022-10-04T19:15:18.913Z,7.28
2022-10-04T19:17:56.044Z,9.00
2022-10-04T19:20:34.227Z,13.23
2022-10-04T19:23:40.677Z,13.70
2022-10-04T19:26:40.626Z,10.27
2022-10-04T19:29:36.493Z,9.77
2022-10-04T19:32:12.048Z,8.88
2022-10-04T19:35:14.358Z,8.02
2022-10-04T19:37:51.956Z,10.05
2022-10-04T19:40:28.430Z,11.77
2022-10-04T19:43:15.742Z,10.00
2022-10-04T19:46:04.490Z,10.68
2022-10-04T19:48:43.658Z,12.07
2022-10-04T19:51:21.596Z,8.75
2022-10-04T19:53:52.099Z,11.77
2022-10-04T19:56:23.823Z,7.37
2022-10-04T19:59:09.086Z,6.93
2022-10-04T20:01:36.322Z,11.35
2022-10-04T20:04:29.829Z,9.00
2022-10-04T20:06:58.754Z,7.78
2022-10-04T20:09:47.937Z,8.15
2022-10-04T20:12:32.874Z,6.65
2022-10-04T20:15:17.335Z,8.32
2022-10-04T20:17:45.689Z,9.82
2022-10-04T20:20:41.340Z,8.48
2022-10-04T20:23:08.720Z,7.45
2022-10-04T20:25:45.419Z,9.73
2022-10-04T20:28:27.238Z,6.72
2022-10-04T20:30:56.210Z,8.30
2022-10-04T20:33:38.320Z,6.38
2022-10-04T20:36:10.387Z,7.80
2022-10-04T20:38:55.038Z,9.80
2022-10-04T20:41:52.539Z,10.80
2022-10-04T20:44:54.143Z,8.32
2022-10-04T20:47:49.075Z,7.82
2022-10-04T20:50:25.486Z,6.63
2022-10-04T20:52:55.655Z,7.22
2022-10-04T20:55:27.278Z,9.23
2022-10-04T20:58:04.935Z,8.75
2022-10-04T21:00:34.193Z,9.10
2022-10-04T21:03:22.065Z,9.50
2022-10-04T21:06:07.098Z,9.38
2022-10-04T21:08:37.245Z,7.32
2022-10-04T21:11:09.584Z,7.60
2022-10-04T21:13:55.444Z,6.80
2022-10-04T21:16:38.113Z,6.10
2022-10-04T21:19:29.554Z,8.60
2022-10-04T21:24:39.628Z,9.50
2022-10-04T21:27:08.718Z,7.47
2022-10-04T21:29:35.284Z,8.45
2022-10-04T21:32:01.811Z,13.85
2022-10-04T21:34:52.069Z,9.07
2022-10-04T21:37:14.970Z,7.45
2022-10-04T21:39:41.818Z,7.57
2022-10-04T21:42:08.226Z,8.65
2022-10-04T21:44:34.803Z,7.85
2022-10-04T21:47:01.179Z,13.38
2022-10-04T21:49:27.589Z,12.85
2022-10-04T21:51:53.938Z,8.70
2022-10-04T21:54:20.287Z,10.35
2022-10-04T21:56:46.897Z,8.15
2022-10-04T21:59:13.530Z,8.85
2022-10-04T22:01:39.857Z,9.27
2022-10-04T22:04:06.181Z,10.80
2022-10-04T22:06:32.541Z,8.40
2022-10-04T22:08:58.983Z,6.72
2022-10-04T22:11:25.427Z,8.10
2022-10-04T22:13:51.751Z,7.93
2022-10-04T22:16:18.192Z,7.45
2022-10-04T22:18:44.562Z,7.35
2022-10-04T22:21:11.049Z,9.05
2022-10-04T22:23:40.185Z,8.40
2022-10-04T22:26:12.447Z,9.43
2022-10-04T22:28:45.487Z,7.95
2022-10-04T22:31:17.730Z,8.57
2022-10-04T22:33:46.252Z,8.70
2022-10-04T22:36:12.710Z,7.25
2022-10-04T22:38:40.071Z,10.13
2022-10-04T22:41:12.048Z,10.18
2022-10-04T22:43:39.101Z,8.52
2022-10-04T22:46:11.195Z,8.07
2022-10-04T22:48:37.605Z,7.13
2022-10-04T22:51:03.929Z,10.55
2022-10-04T22:53:30.321Z,7.82
2022-10-04T22:55:57.857Z,11.05
2022-10-04T22:58:24.265Z,8.30
2022-10-04T23:00:50.724Z,7.95
2022-10-04T23:03:34.236Z,10.30
2022-10-04T23:06:02.787Z,8.10
2022-10-04T23:08:30.083Z,7.30
2022-10-04T23:10:58.510Z,10.20
2022-10-04T23:13:26.608Z,7.60
2022-10-04T23:15:58.013Z,6.32
2022-10-04T23:18:24.416Z,7.63
2022-10-04T23:20:57.967Z,8.02
2022-10-04T23:23:27.969Z,7.07
2022-10-04T23:25:54.513Z,8.93
2022-10-04T23:28:21.178Z,7.40
2022-10-04T23:31:00.181Z,6.18
2022-10-04T23:33:26.637Z,9.48
2022-10-04T23:35:54.601Z,8.30
2022-10-04T23:38:24.732Z,8.30
2022-10-04T23:40:51.352Z,9.30
2022-10-04T23:43:24.996Z,7.45
2022-10-04T23:45:53.669Z,7.00
2022-10-04T23:48:24.076Z,8.98
2022-10-04T23:50:51.661Z,7.60
2022-10-04T23:53:26.406Z,10.02
2022-10-04T23:55:54.687Z,8.68
2022-10-04T23:58:23.786Z,7.43
